createdAt,value
2023-05-25T00:01:11.839Z,17.28
2023-05-25T00:03:40.477Z,17.01
2023-05-25T00:06:07.535Z,17.09
2023-05-25T00:08:34.177Z,17.09
2023-05-25T00:11:00.886Z,17.17
2023-05-25T00:13:27.560Z,17.02
2023-05-25T00:15:54.290Z,16.87
2023-05-25T00:18:20.914Z,16.74
2023-05-25T00:20:47.839Z,16.73
2023-05-25T00:23:14.709Z,16.78
2023-05-25T00:25:41.350Z,16.87
2023-05-25T00:28:07.959Z,16.76
2023-05-25T00:30:34.942Z,16.72
2023-05-25T00:33:01.886Z,16.62
2023-05-25T00:35:28.870Z,16.51
2023-05-25T00:37:55.969Z,16.53
2023-05-25T00:40:22.719Z,16.54
2023-05-25T00:42:49.289Z,16.52
2023-05-25T00:45:15.935Z,16.67
2023-05-25T00:47:43.358Z,16.47
2023-05-25T00:50:14.940Z,16.48
2023-05-25T00:52:41.699Z,16.56
2023-05-25T00:55:11.702Z,16.57
2023-05-25T00:57:41.432Z,16.49
2023-05-25T01:00:11.477Z,16.42
2023-05-25T01:02:40.230Z,16.52
2023-05-25T01:05:10.826Z,16.52
2023-05-25T01:07:39.237Z,16.40
2023-05-25T01:10:09.707Z,16.27
2023-05-25T01:12:38.590Z,16.22
2023-05-25T01:15:06.681Z,16.36
2023-05-25T01:17:38.034Z,16.33
2023-05-25T01:20:11.147Z,16.28
2023-05-25T01:22:41.048Z,16.25
2023-05-25T01:25:15.018Z,16.22
2023-05-25T01:27:49.079Z,16.25
2023-05-25T01:30:18.107Z,15.91
2023-05-25T01:32:45.738Z,15.82
2023-05-25T01:35:14.596Z,15.60
2023-05-25T01:37:48.820Z,15.55
2023-05-25T01:40:15.769Z,15.61
2023-05-25T01:42:42.568Z,15.62
2023-05-25T01:45:11.692Z,15.61
2023-05-25T01:47:53.484Z,15.64
2023-05-25T01:50:44.951Z,15.52
2023-05-25T01:53:18.498Z,15.52
2023-05-25T01:55:59.624Z,15.38
2023-05-25T01:58:28.426Z,15.27
2023-05-25T02:00:56.683Z,15.26
2023-05-25T02:03:23.561Z,15.17
2023-05-25T02:05:50.311Z,15.17
2023-05-25T02:08:16.915Z,15.23
2023-05-25T02:10:43.497Z,15.03
2023-05-25T02:13:10.732Z,15.08
2023-05-25T02:15:37.328Z,15.01
2023-05-25T02:18:05.884Z,14.99
2023-05-25T02:20:32.715Z,14.94
2023-05-25T02:22:59.357Z,15.02
2023-05-25T02:25:26.156Z,14.89
2023-05-25T02:27:52.908Z,14.89
2023-05-25T02:30:19.859Z,14.93
2023-05-25T02:32:46.686Z,14.89
2023-05-25T02:35:13.353Z,14.87
2023-05-25T02:37:40.070Z,14.89
2023-05-25T02:40:07.239Z,14.84
2023-05-25T02:42:33.799Z,14.74
2023-05-25T02:45:00.493Z,14.67
2023-05-25T02:47:27.144Z,14.73
2023-05-25T02:49:53.733Z,14.72
2023-05-25T02:52:21.251Z,14.61
2023-05-25T02:54:47.934Z,14.58
2023-05-25T02:57:14.517Z,14.78
2023-05-25T02:59:41.173Z,14.71
2023-05-25T03:02:07.738Z,14.72
2023-05-25T03:04:37.873Z,14.70
2023-05-25T03:07:04.772Z,14.53
2023-05-25T03:09:31.794Z,14.53
2023-05-25T03:11:58.436Z,14.43
2023-05-25T03:14:24.972Z,14.30
2023-05-25T03:16:53.783Z,14.39
2023-05-25T03:19:20.998Z,14.37
2023-05-25T03:21:47.657Z,14.37
2023-05-25T03:24:14.573Z,14.35
2023-05-25T03:26:41.343Z,14.33
2023-05-25T03:29:08.036Z,14.22
2023-05-25T03:31:34.627Z,14.31
2023-05-25T03:34:01.194Z,14.35
2023-05-25T03:36:27.755Z,14.32
2023-05-25T03:38:54.736Z,14.24
2023-05-25T03:41:21.885Z,14.27
2023-05-25T03:43:48.449Z,14.27
2023-05-25T03:46:15.616Z,14.21
2023-05-25T03:48:42.168Z,14.14
2023-05-25T03:51:08.689Z,14.09
2023-05-25T03:53:35.192Z,14.18
2023-05-25T03:56:01.769Z,14.13
2023-05-25T03:58:28.296Z,14.17
2023-05-25T04:00:56.243Z,14.10
2023-05-25T04:03:23.012Z,14.09
2023-05-25T04:05:50.101Z,13.98
2023-05-25T04:08:20.459Z,14.05
2023-05-25T04:10:47.872Z,14.02
2023-05-25T04:13:14.588Z,14.05
2023-05-25T04:15:41.237Z,14.19
2023-05-25T04:18:07.956Z,14.04
2023-05-25T04:20:34.543Z,14.09
2023-05-25T04:23:01.373Z,14.08
2023-05-25T04:25:29.581Z,14.07
2023-05-25T04:27:56.829Z,14.03
2023-05-25T04:30:24.002Z,14.11
2023-05-25T04:32:50.659Z,13.94
2023-05-25T04:35:20.903Z,14.13
2023-05-25T04:37:48.571Z,13.98
2023-05-25T04:40:15.229Z,13.84
2023-05-25T04:42:41.977Z,13.93
2023-05-25T04:45:10.476Z,13.88
2023-05-25T04:47:37.797Z,13.87
2023-05-25T04:50:04.606Z,13.70
2023-05-25T04:52:31.240Z,13.73
2023-05-25T04:54:57.818Z,13.76
2023-05-25T04:57:24.426Z,13.71
2023-05-25T04:59:51.107Z,13.63
2023-05-25T05:02:17.727Z,13.67
2023-05-25T05:04:44.381Z,13.83
2023-05-25T05:07:11.024Z,13.84
2023-05-25T05:09:37.771Z,13.80
2023-05-25T05:12:04.609Z,13.88
2023-05-25T05:14:31.290Z,14.02
2023-05-25T05:16:57.990Z,13.83
2023-05-25T05:19:24.689Z,13.76
2023-05-25T05:21:51.698Z,13.80
2023-05-25T05:24:18.282Z,13.81
2023-05-25T05:26:57.343Z,13.98
2023-05-25T05:29:26.964Z,14.12
2023-05-25T05:31:54.954Z,14.04
2023-05-25T05:34:22.497Z,14.10
2023-05-25T05:36:56.743Z,14.10
2023-05-25T05:39:24.968Z,14.12
2023-05-25T05:41:52.504Z,14.08
2023-05-25T05:44:21.387Z,14.03
2023-05-25T05:46:48.931Z,13.84
2023-05-25T05:49:15.792Z,14.02
2023-05-25T05:51:42.375Z,13.97
2023-05-25T05:54:08.994Z,13.99
2023-05-25T05:56:35.617Z,14.09
2023-05-25T05:59:02.205Z,14.20
2023-05-25T06:01:28.808Z,14.14
2023-05-25T06:03:56.119Z,14.09
2023-05-25T06:06:23.509Z,14.09
2023-05-25T06:08:51.177Z,14.12
2023-05-25T06:11:17.887Z,14.17
2023-05-25T06:13:45.504Z,14.30
2023-05-25T06:16:13.368Z,14.26
2023-05-25T06:18:39.998Z,14.37
2023-05-25T06:21:06.649Z,14.32
2023-05-25T06:23:33.326Z,14.46
2023-05-25T06:26:06.440Z,14.57
2023-05-25T06:28:33.227Z,14.65
2023-05-25T06:30:59.806Z,14.55
2023-05-25T06:33:26.936Z,14.55
2023-05-25T06:35:58.272Z,14.39
2023-05-25T06:38:24.987Z,14.52
2023-05-25T06:40:51.572Z,14.65
2023-05-25T06:43:18.435Z,14.68
2023-05-25T06:45:45.336Z,14.95
2023-05-25T06:48:12.200Z,15.01
2023-05-25T06:50:40.124Z,15.04
2023-05-25T06:53:07.537Z,15.12
2023-05-25T06:55:34.265Z,15.26
2023-05-25T06:58:00.950Z,15.33
2023-05-25T07:00:28.194Z,15.36
2023-05-25T07:02:54.914Z,15.20
2023-05-25T07:05:22.097Z,15.07
2023-05-25T07:07:48.767Z,15.06
2023-05-25T07:10:15.323Z,15.09
2023-05-25T07:12:41.926Z,15.25
2023-05-25T07:15:09.324Z,15.23
2023-05-25T07:17:36.645Z,15.41
2023-05-25T07:20:04.859Z,15.31
2023-05-25T07:22:31.576Z,15.29
2023-05-25T07:24:59.040Z,15.23
2023-05-25T07:27:25.634Z,15.05
2023-05-25T07:29:52.287Z,15.13
2023-05-25T07:32:18.875Z,15.11
2023-05-25T07:34:45.600Z,15.25
2023-05-25T07:37:12.206Z,15.35
2023-05-25T07:39:40.552Z,15.13
2023-05-25T07:42:07.291Z,15.32
2023-05-25T07:44:34.132Z,15.39
2023-05-25T07:47:01.159Z,15.48
2023-05-25T07:49:28.102Z,15.36
2023-05-25T07:51:54.632Z,15.54
2023-05-25T07:54:21.282Z,15.65
2023-05-25T07:56:47.974Z,15.74
2023-05-25T07:59:14.625Z,15.83
2023-05-25T08:01:41.188Z,15.75
2023-05-25T08:04:07.865Z,15.73
2023-05-25T08:06:34.659Z,15.83
2023-05-25T08:09:03.090Z,15.80
2023-05-25T08:11:31.324Z,15.79
2023-05-25T08:13:57.943Z,15.84
2023-05-25T08:16:24.608Z,15.95
2023-05-25T08:18:52.602Z,16.13
2023-05-25T08:21:19.309Z,16.34
2023-05-25T08:23:45.958Z,16.35
2023-05-25T08:28:42.364Z,16.25
2023-05-25T08:31:09.006Z,16.19
2023-05-25T08:33:35.826Z,16.21
2023-05-25T08:36:02.478Z,16.25
2023-05-25T08:38:29.288Z,16.27
2023-05-25T08:41:07.273Z,16.31
2023-05-25T08:43:34.820Z,16.36
2023-05-25T08:46:05.811Z,16.49
2023-05-25T08:48:41.753Z,16.61
2023-05-25T08:51:11.528Z,16.63
2023-05-25T08:53:41.254Z,16.84
2023-05-25T08:56:18.929Z,16.98
2023-05-25T08:58:52.938Z,17.31
2023-05-25T09:01:22.587Z,17.47
2023-05-25T09:03:50.357Z,17.44
2023-05-25T09:06:17.736Z,17.55
2023-05-25T09:08:45.045Z,17.42
2023-05-25T09:11:16.204Z,17.36
2023-05-25T09:13:43.254Z,17.46
2023-05-25T09:16:11.155Z,17.64
2023-05-25T09:18:37.807Z,17.43
2023-05-25T09:21:05.189Z,17.36
2023-05-25T09:23:32.413Z,17.48
2023-05-25T09:25:59.686Z,17.40
2023-05-25T09:28:27.682Z,17.47
2023-05-25T09:30:54.727Z,17.55
2023-05-25T09:33:21.588Z,17.71
2023-05-25T09:35:48.829Z,17.73
2023-05-25T09:38:17.141Z,17.91
2023-05-25T09:40:45.037Z,18.00
2023-05-25T09:43:15.761Z,17.74
2023-05-25T09:45:48.974Z,17.85
2023-05-25T09:48:15.937Z,18.21
2023-05-25T09:50:43.489Z,18.09
2023-05-25T09:53:11.861Z,18.29
2023-05-25T09:55:52.203Z,17.92
2023-05-25T09:58:24.287Z,18.45
2023-05-25T10:00:55.513Z,18.50
2023-05-25T10:03:22.533Z,18.63
2023-05-25T10:05:49.888Z,18.43
2023-05-25T10:08:20.075Z,18.49
2023-05-25T10:10:50.062Z,18.52
2023-05-25T10:13:24.521Z,18.68
2023-05-25T10:15:54.627Z,18.79
2023-05-25T10:18:26.829Z,19.06
2023-05-25T10:21:02.774Z,18.88
2023-05-25T10:23:42.068Z,18.69
2023-05-25T10:26:10.257Z,18.80
2023-05-25T10:28:38.033Z,18.99
2023-05-25T10:31:05.904Z,19.41
2023-05-25T10:33:33.434Z,18.95
2023-05-25T10:36:10.231Z,19.11
2023-05-25T10:38:40.068Z,18.65
2023-05-25T10:41:09.933Z,18.40
2023-05-25T10:43:38.092Z,18.72
2023-05-25T10:46:06.332Z,18.98
2023-05-25T10:48:40.531Z,19.30
2023-05-25T10:51:09.087Z,19.53
2023-05-25T10:53:37.801Z,19.67
2023-05-25T10:56:06.751Z,18.77
2023-05-25T10:58:34.389Z,18.47
2023-05-25T11:01:02.747Z,18.63
2023-05-25T11:03:44.985Z,18.45
2023-05-25T11:06:16.245Z,18.81
2023-05-25T11:08:54.410Z,19.30
2023-05-25T11:11:21.308Z,19.50
2023-05-25T11:13:49.740Z,18.89
2023-05-25T11:16:20.897Z,19.43
2023-05-25T11:18:58.595Z,19.48
2023-05-25T11:21:28.505Z,19.53
2023-05-25T11:23:57.162Z,19.47
2023-05-25T11:26:26.562Z,19.11
2023-05-25T11:28:56.779Z,19.26
2023-05-25T11:31:39.122Z,19.20
2023-05-25T11:34:09.488Z,19.40
2023-05-25T11:36:36.495Z,19.31
2023-05-25T11:39:11.572Z,19.43
2023-05-25T11:41:49.698Z,19.63
2023-05-25T11:44:33.466Z,19.96
2023-05-25T11:47:18.979Z,20.09
2023-05-25T11:49:47.235Z,20.04
2023-05-25T11:52:18.882Z,20.40
2023-05-25T11:54:46.422Z,20.62
2023-05-25T11:57:18.237Z,20.31
2023-05-25T11:59:52.696Z,20.29
2023-05-25T12:02:20.630Z,20.30
2023-05-25T12:04:58.442Z,20.54
2023-05-25T12:07:26.381Z,20.62
2023-05-25T12:10:15.256Z,19.94
2023-05-25T12:12:43.364Z,20.05
2023-05-25T12:15:22.904Z,19.96
2023-05-25T12:17:51.632Z,20.30
2023-05-25T12:20:19.051Z,20.10
2023-05-25T12:22:47.180Z,20.06
2023-05-25T12:25:18.435Z,20.34
2023-05-25T12:27:45.305Z,20.11
2023-05-25T12:30:12.249Z,20.39
2023-05-25T12:32:55.624Z,20.37
2023-05-25T12:35:22.419Z,20.34
2023-05-25T12:37:49.110Z,20.59
2023-05-25T12:40:24.562Z,20.49
2023-05-25T12:42:57.444Z,20.47
2023-05-25T12:45:24.621Z,20.51
2023-05-25T12:47:51.420Z,20.39
2023-05-25T12:50:19.522Z,20.23
2023-05-25T12:52:48.671Z,20.27
2023-05-25T12:55:26.040Z,20.28
2023-05-25T12:58:28.309Z,20.63
2023-05-25T13:00:55.011Z,20.56
2023-05-25T13:03:21.630Z,20.43
2023-05-25T13:05:48.256Z,20.56
2023-05-25T13:08:15.432Z,20.57
2023-05-25T13:10:42.378Z,20.50
2023-05-25T13:13:11.192Z,20.39
2023-05-25T13:15:37.916Z,20.29
2023-05-25T13:18:05.539Z,20.51
2023-05-25T13:20:32.665Z,20.69
2023-05-25T13:22:59.539Z,20.79
2023-05-25T13:25:28.242Z,20.49
2023-05-25T13:27:56.921Z,20.63
2023-05-25T13:30:23.813Z,20.79
2023-05-25T13:32:51.976Z,20.52
2023-05-25T13:35:23.295Z,20.71
2023-05-25T13:37:51.478Z,20.65
2023-05-25T13:40:18.398Z,20.70
2023-05-25T13:42:45.052Z,20.63
2023-05-25T13:45:11.801Z,20.57
2023-05-25T13:47:38.796Z,20.75
2023-05-25T13:50:06.157Z,20.73
2023-05-25T13:52:33.159Z,20.83
2023-05-25T13:54:59.715Z,21.12
2023-05-25T13:57:26.506Z,21.41
2023-05-25T13:59:53.098Z,21.48
2023-05-25T14:02:20.165Z,21.49
2023-05-25T14:04:46.808Z,21.53
2023-05-25T14:07:14.207Z,21.40
2023-05-25T14:09:40.810Z,21.20
2023-05-25T14:12:07.825Z,21.13
2023-05-25T14:14:34.457Z,21.22
2023-05-25T14:17:01.413Z,21.45
2023-05-25T14:19:28.651Z,21.37
2023-05-25T14:24:25.032Z,21.74
2023-05-25T14:26:51.608Z,21.78
2023-05-25T14:29:18.200Z,21.91
2023-05-25T14:31:44.895Z,21.98
2023-05-25T14:34:11.491Z,22.05
2023-05-25T14:36:38.263Z,22.24
2023-05-25T14:39:05.308Z,21.90
2023-05-25T14:41:31.872Z,21.63
2023-05-25T14:43:58.404Z,21.69
2023-05-25T14:46:25.448Z,21.65
2023-05-25T14:48:52.061Z,21.58
2023-05-25T14:51:18.656Z,21.61
2023-05-25T14:53:45.990Z,21.70
2023-05-25T14:56:12.602Z,21.84
2023-05-25T14:58:39.214Z,21.78
2023-05-25T15:01:06.018Z,21.86
2023-05-25T15:03:33.187Z,21.99
2023-05-25T15:05:59.848Z,21.98
2023-05-25T15:08:26.808Z,22.00
2023-05-25T15:10:53.468Z,22.12
2023-05-25T15:13:22.556Z,22.30
2023-05-25T15:15:55.094Z,22.34
2023-05-25T15:18:21.681Z,22.56
2023-05-25T15:20:48.414Z,22.50
2023-05-25T15:23:15.074Z,21.98
2023-05-25T15:25:41.658Z,22.00
2023-05-25T15:28:08.352Z,22.18
2023-05-25T15:30:34.922Z,22.37
2023-05-25T15:33:02.023Z,22.42
2023-05-25T15:35:32.312Z,22.59
2023-05-25T15:37:59.793Z,22.58
2023-05-25T15:40:27.596Z,22.65
2023-05-25T15:42:54.219Z,22.42
2023-05-25T15:45:20.807Z,22.31
2023-05-25T15:47:47.558Z,22.40
2023-05-25T15:50:14.282Z,22.66
2023-05-25T15:52:41.586Z,22.55
2023-05-25T15:55:08.862Z,22.71
2023-05-25T15:57:35.529Z,22.87
2023-05-25T16:00:02.080Z,22.85
2023-05-25T16:02:29.033Z,22.67
2023-05-25T16:04:55.587Z,22.67
2023-05-25T16:07:22.157Z,22.64
2023-05-25T16:09:48.780Z,22.60
2023-05-25T16:12:15.768Z,22.47
2023-05-25T16:14:42.389Z,22.65
2023-05-25T16:17:09.064Z,22.73
2023-05-25T16:19:36.053Z,22.84
2023-05-25T16:22:02.616Z,22.82
2023-05-25T16:24:29.776Z,23.02
2023-05-25T16:26:57.663Z,23.39
2023-05-25T16:29:24.340Z,23.58
2023-05-25T16:31:50.926Z,23.97
2023-05-25T16:34:17.536Z,24.26
2023-05-25T16:36:44.137Z,24.52
2023-05-25T16:39:11.779Z,24.46
2023-05-25T16:41:38.425Z,24.12
2023-05-25T16:44:05.029Z,23.66
2023-05-25T16:46:31.985Z,23.26
2023-05-25T16:48:58.726Z,23.04
2023-05-25T16:51:25.900Z,22.88
2023-05-25T16:53:53.958Z,22.71
2023-05-25T16:56:21.525Z,22.60
2023-05-25T16:58:48.203Z,22.32
2023-05-25T17:01:14.801Z,22.16
2023-05-25T17:03:41.495Z,21.85
2023-05-25T17:06:08.684Z,21.61
2023-05-25T17:08:36.454Z,21.33
2023-05-25T17:11:03.033Z,21.39
2023-05-25T17:13:29.608Z,21.41
2023-05-25T17:15:56.209Z,21.33
2023-05-25T17:18:22.934Z,21.02
2023-05-25T17:20:49.594Z,21.06
2023-05-25T17:23:16.917Z,21.04
2023-05-25T17:25:44.933Z,21.17
2023-05-25T17:28:11.760Z,21.24
2023-05-25T17:30:38.365Z,21.21
2023-05-25T17:33:05.020Z,21.32
2023-05-25T17:35:31.650Z,21.71
2023-05-25T17:37:58.235Z,22.19
2023-05-25T17:40:24.832Z,21.83
2023-05-25T17:42:51.540Z,21.45
2023-05-25T17:45:18.244Z,21.16
2023-05-25T17:47:44.852Z,21.01
2023-05-25T17:50:11.472Z,20.96
2023-05-25T17:52:38.085Z,20.78
2023-05-25T17:55:06.058Z,20.64
2023-05-25T17:57:32.725Z,20.20
2023-05-25T17:59:59.335Z,20.05
2023-05-25T18:02:27.245Z,20.08
2023-05-25T18:04:53.913Z,20.08
2023-05-25T18:07:22.176Z,19.79
2023-05-25T18:09:48.764Z,19.51
2023-05-25T18:12:15.398Z,19.58
2023-05-25T18:14:41.965Z,19.63
2023-05-25T18:17:08.874Z,19.62
2023-05-25T18:19:36.229Z,19.58
2023-05-25T18:22:02.813Z,19.67
2023-05-25T18:24:29.388Z,19.44
2023-05-25T18:26:56.000Z,19.42
2023-05-25T18:29:22.589Z,19.49
2023-05-25T18:31:49.276Z,19.41
2023-05-25T18:34:16.083Z,19.34
2023-05-25T18:36:42.736Z,19.00
2023-05-25T18:39:09.443Z,18.77
2023-05-25T18:41:36.428Z,18.90
2023-05-25T18:44:03.008Z,18.55
2023-05-25T18:46:29.978Z,18.66
2023-05-25T18:48:56.586Z,18.76
2023-05-25T18:51:25.850Z,18.80
2023-05-25T18:53:52.718Z,18.80
2023-05-25T18:56:19.568Z,18.71
2023-05-25T18:58:47.073Z,18.53
2023-05-25T19:01:14.432Z,18.50
2023-05-25T19:03:41.311Z,18.23
2023-05-25T19:06:08.742Z,18.28
2023-05-25T19:08:35.374Z,18.15
2023-05-25T19:11:01.948Z,18.37
2023-05-25T19:13:28.633Z,18.33
2023-05-25T19:15:55.267Z,18.41
2023-05-25T19:18:21.923Z,18.38
2023-05-25T19:20:48.795Z,18.39
2023-05-25T19:23:15.627Z,18.36
2023-05-25T19:25:42.224Z,18.34
2023-05-25T19:28:08.886Z,18.33
2023-05-25T19:30:35.574Z,18.29
2023-05-25T19:33:02.292Z,18.21
2023-05-25T19:35:28.945Z,18.02
2023-05-25T19:37:55.507Z,18.13
2023-05-25T19:40:22.312Z,18.20
2023-05-25T19:42:48.898Z,18.22
2023-05-25T19:45:19.144Z,18.13
2023-05-25T19:47:46.941Z,17.77
2023-05-25T19:50:14.033Z,17.61
2023-05-25T19:52:41.757Z,17.61
2023-05-25T19:55:08.491Z,17.51
2023-05-25T19:57:35.170Z,17.41
2023-05-25T20:00:02.002Z,17.47
2023-05-25T20:02:28.734Z,17.60
2023-05-25T20:04:55.430Z,17.44
2023-05-25T20:07:22.144Z,17.62
2023-05-25T20:09:48.744Z,17.62
2023-05-25T20:12:16.389Z,17.67
2023-05-25T20:14:43.663Z,17.71
2023-05-25T20:17:10.333Z,17.83
2023-05-25T20:19:36.982Z,17.81
2023-05-25T20:22:04.397Z,17.81
2023-05-25T20:24:32.369Z,17.85
2023-05-25T20:26:59.892Z,17.77
2023-05-25T20:29:26.572Z,17.63
2023-05-25T20:31:53.727Z,17.69
2023-05-25T20:34:20.716Z,17.57
2023-05-25T20:36:47.284Z,17.69
2023-05-25T20:39:14.319Z,17.79
2023-05-25T20:41:40.951Z,17.76
2023-05-25T20:44:08.835Z,17.82
2023-05-25T20:46:35.689Z,17.73
2023-05-25T20:49:03.525Z,17.71
2023-05-25T20:51:31.189Z,17.67
2023-05-25T20:53:57.821Z,17.68
2023-05-25T20:56:26.669Z,17.80
2023-05-25T20:58:53.514Z,17.79
2023-05-25T21:01:20.201Z,17.71
2023-05-25T21:03:46.921Z,17.46
2023-05-25T21:06:13.633Z,17.22
2023-05-25T21:08:40.184Z,17.24
2023-05-25T21:11:06.731Z,17.37
2023-05-25T21:13:33.337Z,17.35
2023-05-25T21:16:00.054Z,17.39
2023-05-25T21:18:26.767Z,17.50
2023-05-25T21:20:53.362Z,17.46
2023-05-25T21:23:19.897Z,17.28
2023-05-25T21:25:47.206Z,17.33
2023-05-25T21:28:14.284Z,17.20
2023-05-25T21:30:40.892Z,17.20
2023-05-25T21:33:07.631Z,17.13
2023-05-25T21:35:34.300Z,17.16
2023-05-25T21:38:00.923Z,17.12
2023-05-25T21:40:27.503Z,17.18
2023-05-25T21:42:54.366Z,17.18
2023-05-25T21:45:21.245Z,17.09
2023-05-25T21:47:48.782Z,16.92
2023-05-25T21:50:15.833Z,16.57
2023-05-25T21:52:42.523Z,16.62
2023-05-25T21:55:09.304Z,16.85
2023-05-25T21:57:36.430Z,16.79
2023-05-25T22:00:03.950Z,16.59
2023-05-25T22:02:30.649Z,16.56
2023-05-25T22:04:57.355Z,16.66
2023-05-25T22:07:24.164Z,16.70
2023-05-25T22:09:50.903Z,16.67
2023-05-25T22:12:17.517Z,16.58
2023-05-25T22:14:44.078Z,16.52
2023-05-25T22:17:10.701Z,16.48
2023-05-25T22:19:37.366Z,16.59
2023-05-25T22:22:04.162Z,16.48
2023-05-25T22:24:30.856Z,16.52
2023-05-25T22:26:57.430Z,16.49
2023-05-25T22:29:24.013Z,16.50
2023-05-25T22:31:51.189Z,16.47
2023-05-25T22:34:17.806Z,16.49
2023-05-25T22:36:44.348Z,16.50
2023-05-25T22:39:11.036Z,16.48
2023-05-25T22:41:37.666Z,16.49
2023-05-25T22:44:04.257Z,16.41
2023-05-25T22:46:30.922Z,16.42
2023-05-25T22:48:57.581Z,16.45
2023-05-25T22:51:24.160Z,16.48
2023-05-25T22:53:51.286Z,16.52
2023-05-25T22:56:17.969Z,16.49
2023-05-25T22:58:44.533Z,16.42
2023-05-25T23:01:11.096Z,16.44
2023-05-25T23:03:37.770Z,16.44
2023-05-25T23:06:04.531Z,16.44
2023-05-25T23:08:31.250Z,16.33
2023-05-25T23:10:57.832Z,16.34
2023-05-25T23:13:24.538Z,16.31
2023-05-25T23:15:51.273Z,16.30
2023-05-25T23:18:17.931Z,16.30
2023-05-25T23:20:45.022Z,16.24
2023-05-25T23:23:12.252Z,16.25
2023-05-25T23:25:38.858Z,16.24
2023-05-25T23:28:05.648Z,16.21
2023-05-25T23:30:32.350Z,16.16
2023-05-25T23:33:00.138Z,16.22
2023-05-25T23:35:27.528Z,16.24
2023-05-25T23:37:54.973Z,16.23
2023-05-25T23:40:21.583Z,16.22
2023-05-25T23:42:48.157Z,16.24
2023-05-25T23:45:14.777Z,16.25
2023-05-25T23:47:41.353Z,16.02
2023-05-25T23:50:08.245Z,16.01
2023-05-25T23:52:35.045Z,16.01
2023-05-25T23:55:01.755Z,16.08
2023-05-25T23:57:28.327Z,16.08
2023-05-25T23:59:55.251Z,16.04
